Cloverdale, Iowa
Current Conditions -  °F | °C
As of 9:15 PM on Saturday 22 Nov 2014 (Local Time) from KSHL Reporting Station
Haze Haze  
Wind Chill: 41°   Ceiling: 600
Heat Index: 48°   Visibility: 6mi
Dew Point: 48°   Wind: 21mph
Humidity: 100%   Direction: 200°SSW
Pressure: 29.49"   Gusts: 29mph
Location:  43.4213°N, 95.7453°W
Report Text: KSHL 230315Z AUTO 20018G25KT 6SM BR OVC006 09/09 A2949 RMK AO2
Loading
Personal Weather Stations






























Interactive Weather Map New forecast layout! Learn more

10-Day Weather Forecast

Advertisements
Track Severe Weather on mobile